sensor_id;sensor_type;location;lat;lon;timestamp;P1;durP1;ratioP1;P2;durP2;ratioP2
6537;SDS011;3302;52.508;13.454;2022-10-16T00:01:19;4.13;;;3.73;;
6537;SDS011;3302;52.508;13.454;2022-10-16T00:03:47;4.53;;;3.90;;
6537;SDS011;3302;52.508;13.454;2022-10-16T00:06:14;3.67;;;3.27;;
6537;SDS011;3302;52.508;13.454;2022-10-16T00:08:41;3.67;;;3.10;;
6537;SDS011;3302;52.508;13.454;2022-10-16T00:11:12;3.70;;;3.40;;
6537;SDS011;3302;52.508;13.454;2022-10-16T00:13:41;4.10;;;3.20;;
6537;SDS011;3302;52.508;13.454;2022-10-16T00:16:08;5.23;;;3.60;;
6537;SDS011;3302;52.508;13.454;2022-10-16T00:18:37;5.73;;;3.63;;
6537;SDS011;3302;52.508;13.454;2022-10-16T00:21:04;5.20;;;3.80;;
6537;SDS011;3302;52.508;13.454;2022-10-16T00:23:35;4.17;;;3.30;;
6537;SDS011;3302;52.508;13.454;2022-10-16T00:26:03;3.23;;;2.93;;
6537;SDS011;3302;52.508;13.454;2022-10-16T00:28:31;3.30;;;3.00;;
6537;SDS011;3302;52.508;13.454;2022-10-16T00:30:56;5.83;;;3.87;;
6537;SDS011;3302;52.508;13.454;2022-10-16T00:33:22;4.33;;;3.17;;
6537;SDS011;3302;52.508;13.454;2022-10-16T00:35:48;3.80;;;3.07;;
6537;SDS011;3302;52.508;13.454;2022-10-16T00:38:15;4.73;;;3.70;;
6537;SDS011;3302;52.508;13.454;2022-10-16T00:40:41;3.60;;;3.20;;
6537;SDS011;3302;52.508;13.454;2022-10-16T00:43:53;3.33;;;2.90;;
6537;SDS011;3302;52.508;13.454;2022-10-16T00:46:20;3.10;;;2.40;;
6537;SDS011;3302;52.508;13.454;2022-10-16T00:48:49;4.17;;;2.53;;
6537;SDS011;3302;52.508;13.454;2022-10-16T00:51:23;2.57;;;2.37;;
6537;SDS011;3302;52.508;13.454;2022-10-16T00:53:52;3.17;;;2.47;;
6537;SDS011;3302;52.508;13.454;2022-10-16T00:56:18;2.50;;;2.20;;
6537;SDS011;3302;52.508;13.454;2022-10-16T00:58:44;3.57;;;2.53;;
6537;SDS011;3302;52.508;13.454;2022-10-16T01:01:10;3.40;;;2.50;;
6537;SDS011;3302;52.508;13.454;2022-10-16T01:03:36;2.90;;;2.40;;
6537;SDS011;3302;52.508;13.454;2022-10-16T01:06:05;2.53;;;1.93;;
6537;SDS011;3302;52.508;13.454;2022-10-16T01:08:45;2.70;;;2.33;;
6537;SDS011;3302;52.508;13.454;2022-10-16T01:11:23;3.53;;;2.33;;
6537;SDS011;3302;52.508;13.454;2022-10-16T01:14:26;2.83;;;1.97;;
6537;SDS011;3302;52.508;13.454;2022-10-16T01:17:04;2.80;;;2.20;;
6537;SDS011;3302;52.508;13.454;2022-10-16T01:20:00;2.67;;;2.33;;
6537;SDS011;3302;52.508;13.454;2022-10-16T01:22:37;2.17;;;1.93;;
6537;SDS011;3302;52.508;13.454;2022-10-16T01:25:11;3.90;;;2.40;;
6537;SDS011;3302;52.508;13.454;2022-10-16T01:27:44;2.63;;;2.43;;
6537;SDS011;3302;52.508;13.454;2022-10-16T01:30:21;3.00;;;2.70;;
6537;SDS011;3302;52.508;13.454;2022-10-16T01:33:00;3.17;;;2.27;;
6537;SDS011;3302;52.508;13.454;2022-10-16T01:35:37;3.10;;;2.40;;
6537;SDS011;3302;52.508;13.454;2022-10-16T01:38:44;2.87;;;2.20;;
6537;SDS011;3302;52.508;13.454;2022-10-16T01:41:06;2.67;;;2.47;;
6537;SDS011;3302;52.508;13.454;2022-10-16T01:43:38;2.73;;;2.07;;
6537;SDS011;3302;52.508;13.454;2022-10-16T01:46:18;2.23;;;1.97;;
6537;SDS011;3302;52.508;13.454;2022-10-16T01:48:46;2.70;;;2.20;;
6537;SDS011;3302;52.508;13.454;2022-10-16T01:51:14;2.73;;;2.30;;
6537;SDS011;3302;52.508;13.454;2022-10-16T01:53:43;2.93;;;2.50;;
6537;SDS011;3302;52.508;13.454;2022-10-16T01:56:13;2.47;;;2.27;;
6537;SDS011;3302;52.508;13.454;2022-10-16T01:58:42;3.07;;;2.77;;
6537;SDS011;3302;52.508;13.454;2022-10-16T02:01:12;3.83;;;2.20;;
6537;SDS011;3302;52.508;13.454;2022-10-16T02:03:42;3.00;;;2.50;;
6537;SDS011;3302;52.508;13.454;2022-10-16T02:06:09;2.87;;;2.50;;
6537;SDS011;3302;52.508;13.454;2022-10-16T02:08:35;2.83;;;2.37;;
6537;SDS011;3302;52.508;13.454;2022-10-16T02:11:01;2.30;;;2.10;;
6537;SDS011;3302;52.508;13.454;2022-10-16T02:13:33;2.63;;;2.23;;
6537;SDS011;3302;52.508;13.454;2022-10-16T02:16:02;2.83;;;1.73;;
6537;SDS011;3302;52.508;13.454;2022-10-16T02:18:28;2.30;;;2.10;;
6537;SDS011;3302;52.508;13.454;2022-10-16T02:20:59;2.67;;;1.90;;
6537;SDS011;3302;52.508;13.454;2022-10-16T02:26:30;2.07;;;1.70;;
6537;SDS011;3302;52.508;13.454;2022-10-16T02:29:05;2.90;;;1.60;;
6537;SDS011;3302;52.508;13.454;2022-10-16T02:31:36;1.80;;;1.70;;
6537;SDS011;3302;52.508;13.454;2022-10-16T02:34:06;2.10;;;1.90;;
6537;SDS011;3302;52.508;13.454;2022-10-16T02:36:33;2.37;;;1.90;;
6537;SDS011;3302;52.508;13.454;2022-10-16T02:39:01;3.00;;;1.50;;
6537;SDS011;3302;52.508;13.454;2022-10-16T02:41:29;3.30;;;1.70;;
6537;SDS011;3302;52.508;13.454;2022-10-16T02:43:55;2.50;;;1.30;;
6537;SDS011;3302;52.508;13.454;2022-10-16T02:46:21;2.90;;;1.83;;
6537;SDS011;3302;52.508;13.454;2022-10-16T02:48:47;2.53;;;2.20;;
6537;SDS011;3302;52.508;13.454;2022-10-16T02:51:12;4.27;;;1.80;;
6537;SDS011;3302;52.508;13.454;2022-10-16T02:53:38;2.50;;;1.60;;
6537;SDS011;3302;52.508;13.454;2022-10-16T02:56:04;1.90;;;1.70;;
6537;SDS011;3302;52.508;13.454;2022-10-16T02:58:30;1.77;;;1.40;;
6537;SDS011;3302;52.508;13.454;2022-10-16T03:00:56;3.07;;;1.80;;
6537;SDS011;3302;52.508;13.454;2022-10-16T03:03:22;3.73;;;1.80;;
6537;SDS011;3302;52.508;13.454;2022-10-16T03:05:47;2.57;;;1.80;;
6537;SDS011;3302;52.508;13.454;2022-10-16T03:08:13;1.90;;;1.80;;
6537;SDS011;3302;52.508;13.454;2022-10-16T03:10:39;1.93;;;1.50;;
6537;SDS011;3302;52.508;13.454;2022-10-16T03:13:05;1.50;;;1.40;;
6537;SDS011;3302;52.508;13.454;2022-10-16T03:15:30;2.00;;;1.50;;
6537;SDS011;3302;52.508;13.454;2022-10-16T03:17:59;1.90;;;1.70;;
6537;SDS011;3302;52.508;13.454;2022-10-16T03:20:25;2.30;;;1.70;;
6537;SDS011;3302;52.508;13.454;2022-10-16T03:22:51;2.63;;;2.10;;
6537;SDS011;3302;52.508;13.454;2022-10-16T03:25:17;2.43;;;1.70;;
6537;SDS011;3302;52.508;13.454;2022-10-16T03:27:43;1.97;;;1.70;;
6537;SDS011;3302;52.508;13.454;2022-10-16T03:30:09;2.53;;;1.60;;
6537;SDS011;3302;52.508;13.454;2022-10-16T03:32:35;2.70;;;1.80;;
6537;SDS011;3302;52.508;13.454;2022-10-16T03:35:01;1.67;;;1.50;;
6537;SDS011;3302;52.508;13.454;2022-10-16T03:37:27;2.63;;;1.83;;
6537;SDS011;3302;52.508;13.454;2022-10-16T03:39:53;2.30;;;1.70;;
6537;SDS011;3302;52.508;13.454;2022-10-16T03:42:18;2.70;;;1.70;;
6537;SDS011;3302;52.508;13.454;2022-10-16T03:44:44;3.30;;;2.07;;
6537;SDS011;3302;52.508;13.454;2022-10-16T03:47:10;2.80;;;2.20;;
6537;SDS011;3302;52.508;13.454;2022-10-16T03:49:35;2.43;;;2.10;;
6537;SDS011;3302;52.508;13.454;2022-10-16T03:52:01;3.83;;;2.30;;
6537;SDS011;3302;52.508;13.454;2022-10-16T03:54:27;3.60;;;2.20;;
6537;SDS011;3302;52.508;13.454;2022-10-16T03:56:53;2.20;;;2.00;;
6537;SDS011;3302;52.508;13.454;2022-10-16T03:59:18;2.10;;;1.90;;
6537;SDS011;3302;52.508;13.454;2022-10-16T04:01:44;2.03;;;1.83;;
6537;SDS011;3302;52.508;13.454;2022-10-16T04:04:10;3.70;;;2.30;;
6537;SDS011;3302;52.508;13.454;2022-10-16T04:06:35;3.13;;;2.00;;
6537;SDS011;3302;52.508;13.454;2022-10-16T04:09:01;2.40;;;2.00;;
6537;SDS011;3302;52.508;13.454;2022-10-16T04:11:27;2.30;;;1.90;;
6537;SDS011;3302;52.508;13.454;2022-10-16T04:13:53;2.37;;;2.17;;
6537;SDS011;3302;52.508;13.454;2022-10-16T04:16:19;3.10;;;2.10;;
6537;SDS011;3302;52.508;13.454;2022-10-16T04:18:45;2.77;;;2.10;;
6537;SDS011;3302;52.508;13.454;2022-10-16T04:21:11;2.30;;;1.93;;
6537;SDS011;3302;52.508;13.454;2022-10-16T04:23:36;3.40;;;1.83;;
6537;SDS011;3302;52.508;13.454;2022-10-16T04:26:02;2.47;;;2.10;;
6537;SDS011;3302;52.508;13.454;2022-10-16T04:28:28;4.33;;;1.80;;
6537;SDS011;3302;52.508;13.454;2022-10-16T04:30:54;2.23;;;1.70;;
6537;SDS011;3302;52.508;13.454;2022-10-16T04:33:20;2.20;;;2.00;;
6537;SDS011;3302;52.508;13.454;2022-10-16T04:35:46;2.33;;;1.80;;
6537;SDS011;3302;52.508;13.454;2022-10-16T04:38:11;2.83;;;2.13;;
6537;SDS011;3302;52.508;13.454;2022-10-16T04:40:37;2.80;;;2.47;;
6537;SDS011;3302;52.508;13.454;2022-10-16T04:43:04;2.50;;;2.10;;
6537;SDS011;3302;52.508;13.454;2022-10-16T04:45:29;2.03;;;1.83;;
6537;SDS011;3302;52.508;13.454;2022-10-16T04:47:59;2.17;;;1.97;;
6537;SDS011;3302;52.508;13.454;2022-10-16T04:50:24;2.20;;;2.00;;
6537;SDS011;3302;52.508;13.454;2022-10-16T04:52:50;2.63;;;2.33;;
6537;SDS011;3302;52.508;13.454;2022-10-16T04:55:16;3.63;;;2.70;;
6537;SDS011;3302;52.508;13.454;2022-10-16T04:57:42;3.17;;;2.87;;
6537;SDS011;3302;52.508;13.454;2022-10-16T05:00:08;3.50;;;2.93;;
6537;SDS011;3302;52.508;13.454;2022-10-16T05:02:34;4.87;;;3.00;;
6537;SDS011;3302;52.508;13.454;2022-10-16T05:05:00;3.60;;;2.83;;
6537;SDS011;3302;52.508;13.454;2022-10-16T05:07:26;3.43;;;2.50;;
6537;SDS011;3302;52.508;13.454;2022-10-16T05:09:51;4.10;;;3.17;;
6537;SDS011;3302;52.508;13.454;2022-10-16T05:12:18;2.50;;;2.30;;
6537;SDS011;3302;52.508;13.454;2022-10-16T05:14:44;2.30;;;2.10;;
6537;SDS011;3302;52.508;13.454;2022-10-16T05:17:09;2.57;;;2.30;;
6537;SDS011;3302;52.508;13.454;2022-10-16T05:19:35;3.40;;;2.40;;
6537;SDS011;3302;52.508;13.454;2022-10-16T05:22:01;2.87;;;2.40;;
6537;SDS011;3302;52.508;13.454;2022-10-16T05:24:26;5.60;;;2.60;;
6537;SDS011;3302;52.508;13.454;2022-10-16T05:26:52;5.23;;;3.37;;
6537;SDS011;3302;52.508;13.454;2022-10-16T05:29:18;3.43;;;3.10;;
6537;SDS011;3302;52.508;13.454;2022-10-16T05:31:44;4.83;;;2.73;;
6537;SDS011;3302;52.508;13.454;2022-10-16T05:34:10;4.63;;;3.80;;
6537;SDS011;3302;52.508;13.454;2022-10-16T05:36:36;7.53;;;3.40;;
6537;SDS011;3302;52.508;13.454;2022-10-16T05:39:02;3.20;;;2.90;;
6537;SDS011;3302;52.508;13.454;2022-10-16T05:41:28;2.93;;;2.63;;
6537;SDS011;3302;52.508;13.454;2022-10-16T05:43:54;4.07;;;2.20;;
6537;SDS011;3302;52.508;13.454;2022-10-16T05:46:19;2.93;;;2.40;;
6537;SDS011;3302;52.508;13.454;2022-10-16T05:48:45;3.17;;;2.63;;
6537;SDS011;3302;52.508;13.454;2022-10-16T05:51:12;3.37;;;2.20;;
6537;SDS011;3302;52.508;13.454;2022-10-16T05:53:39;2.50;;;2.30;;
6537;SDS011;3302;52.508;13.454;2022-10-16T05:56:06;2.43;;;2.23;;
6537;SDS011;3302;52.508;13.454;2022-10-16T05:58:34;3.17;;;2.03;;
6537;SDS011;3302;52.508;13.454;2022-10-16T06:01:03;2.97;;;2.30;;
6537;SDS011;3302;52.508;13.454;2022-10-16T06:03:39;2.40;;;2.20;;
6537;SDS011;3302;52.508;13.454;2022-10-16T06:06:11;4.00;;;2.30;;
6537;SDS011;3302;52.508;13.454;2022-10-16T06:08:39;2.33;;;2.10;;
6537;SDS011;3302;52.508;13.454;2022-10-16T06:11:07;2.93;;;2.33;;
6537;SDS011;3302;52.508;13.454;2022-10-16T06:13:35;2.30;;;2.10;;
6537;SDS011;3302;52.508;13.454;2022-10-16T06:16:02;2.40;;;2.10;;
6537;SDS011;3302;52.508;13.454;2022-10-16T06:18:29;2.33;;;2.13;;
6537;SDS011;3302;52.508;13.454;2022-10-16T06:20:55;2.03;;;1.83;;
6537;SDS011;3302;52.508;13.454;2022-10-16T06:23:22;2.63;;;2.00;;
6537;SDS011;3302;52.508;13.454;2022-10-16T06:25:48;3.43;;;2.30;;
6537;SDS011;3302;52.508;13.454;2022-10-16T06:28:14;4.03;;;2.40;;
6537;SDS011;3302;52.508;13.454;2022-10-16T06:30:41;3.00;;;2.17;;
6537;SDS011;3302;52.508;13.454;2022-10-16T06:33:09;2.70;;;2.07;;
6537;SDS011;3302;52.508;13.454;2022-10-16T06:35:35;2.73;;;2.27;;
6537;SDS011;3302;52.508;13.454;2022-10-16T06:38:01;3.23;;;2.23;;
6537;SDS011;3302;52.508;13.454;2022-10-16T06:40:27;2.20;;;2.00;;
6537;SDS011;3302;52.508;13.454;2022-10-16T06:42:54;2.23;;;2.00;;
6537;SDS011;3302;52.508;13.454;2022-10-16T06:45:20;3.03;;;2.30;;
6537;SDS011;3302;52.508;13.454;2022-10-16T06:47:46;2.63;;;2.10;;
6537;SDS011;3302;52.508;13.454;2022-10-16T06:50:12;2.47;;;2.10;;
6537;SDS011;3302;52.508;13.454;2022-10-16T06:52:37;2.90;;;2.67;;
6537;SDS011;3302;52.508;13.454;2022-10-16T06:55:03;2.10;;;1.90;;
6537;SDS011;3302;52.508;13.454;2022-10-16T06:57:29;2.40;;;2.20;;
6537;SDS011;3302;52.508;13.454;2022-10-16T06:59:55;3.60;;;2.10;;
6537;SDS011;3302;52.508;13.454;2022-10-16T07:02:21;2.87;;;2.10;;
6537;SDS011;3302;52.508;13.454;2022-10-16T07:04:46;5.03;;;2.50;;
6537;SDS011;3302;52.508;13.454;2022-10-16T07:07:12;3.07;;;2.13;;
6537;SDS011;3302;52.508;13.454;2022-10-16T07:09:38;2.30;;;2.00;;
6537;SDS011;3302;52.508;13.454;2022-10-16T07:12:05;3.30;;;1.83;;
6537;SDS011;3302;52.508;13.454;2022-10-16T07:14:30;2.50;;;2.30;;
6537;SDS011;3302;52.508;13.454;2022-10-16T07:16:56;2.40;;;2.10;;
6537;SDS011;3302;52.508;13.454;2022-10-16T07:19:22;3.37;;;2.03;;
6537;SDS011;3302;52.508;13.454;2022-10-16T07:21:47;5.77;;;2.30;;
6537;SDS011;3302;52.508;13.454;2022-10-16T07:24:14;2.80;;;2.20;;
6537;SDS011;3302;52.508;13.454;2022-10-16T07:26:41;2.30;;;2.10;;
6537;SDS011;3302;52.508;13.454;2022-10-16T07:29:16;2.50;;;2.10;;
6537;SDS011;3302;52.508;13.454;2022-10-16T07:31:44;2.43;;;2.23;;
6537;SDS011;3302;52.508;13.454;2022-10-16T07:34:12;2.47;;;2.27;;
6537;SDS011;3302;52.508;13.454;2022-10-16T07:36:39;3.30;;;2.33;;
6537;SDS011;3302;52.508;13.454;2022-10-16T07:39:05;2.47;;;2.27;;
6537;SDS011;3302;52.508;13.454;2022-10-16T07:41:31;3.80;;;2.00;;
6537;SDS011;3302;52.508;13.454;2022-10-16T07:43:58;2.60;;;2.10;;
6537;SDS011;3302;52.508;13.454;2022-10-16T07:46:26;2.23;;;2.00;;
6537;SDS011;3302;52.508;13.454;2022-10-16T07:48:53;2.30;;;2.10;;
6537;SDS011;3302;52.508;13.454;2022-10-16T07:51:19;3.23;;;2.20;;
6537;SDS011;3302;52.508;13.454;2022-10-16T07:53:46;2.20;;;1.80;;
6537;SDS011;3302;52.508;13.454;2022-10-16T07:56:12;3.50;;;2.10;;
6537;SDS011;3302;52.508;13.454;2022-10-16T07:58:38;2.27;;;1.80;;
6537;SDS011;3302;52.508;13.454;2022-10-16T08:01:05;2.17;;;1.97;;
6537;SDS011;3302;52.508;13.454;2022-10-16T08:03:33;2.33;;;1.80;;
6537;SDS011;3302;52.508;13.454;2022-10-16T08:05:59;2.10;;;1.90;;
6537;SDS011;3302;52.508;13.454;2022-10-16T08:08:25;2.83;;;1.90;;
6537;SDS011;3302;52.508;13.454;2022-10-16T08:10:52;3.80;;;2.00;;
6537;SDS011;3302;52.508;13.454;2022-10-16T08:13:18;2.43;;;1.83;;
6537;SDS011;3302;52.508;13.454;2022-10-16T08:15:44;2.27;;;1.67;;
6537;SDS011;3302;52.508;13.454;2022-10-16T08:18:11;2.70;;;1.83;;
6537;SDS011;3302;52.508;13.454;2022-10-16T08:20:40;2.33;;;1.90;;
6537;SDS011;3302;52.508;13.454;2022-10-16T08:23:07;1.70;;;1.50;;
6537;SDS011;3302;52.508;13.454;2022-10-16T08:25:36;3.10;;;1.70;;
6537;SDS011;3302;52.508;13.454;2022-10-16T08:28:05;4.00;;;1.73;;
6537;SDS011;3302;52.508;13.454;2022-10-16T08:30:32;4.60;;;1.70;;
6537;SDS011;3302;52.508;13.454;2022-10-16T08:32:59;1.70;;;1.50;;
6537;SDS011;3302;52.508;13.454;2022-10-16T08:35:25;3.60;;;1.87;;
6537;SDS011;3302;52.508;13.454;2022-10-16T08:37:51;4.00;;;1.80;;
6537;SDS011;3302;52.508;13.454;2022-10-16T08:40:22;3.77;;;1.50;;
6537;SDS011;3302;52.508;13.454;2022-10-16T08:42:57;1.80;;;1.50;;
6537;SDS011;3302;52.508;13.454;2022-10-16T08:45:55;1.47;;;1.30;;
6537;SDS011;3302;52.508;13.454;2022-10-16T08:48:35;2.53;;;1.67;;
6537;SDS011;3302;52.508;13.454;2022-10-16T08:51:26;2.87;;;1.80;;
6537;SDS011;3302;52.508;13.454;2022-10-16T08:53:56;1.67;;;1.50;;
6537;SDS011;3302;52.508;13.454;2022-10-16T08:56:39;1.90;;;1.57;;
6537;SDS011;3302;52.508;13.454;2022-10-16T08:59:06;1.87;;;1.53;;
6537;SDS011;3302;52.508;13.454;2022-10-16T09:01:45;2.20;;;1.40;;
6537;SDS011;3302;52.508;13.454;2022-10-16T09:04:23;2.40;;;1.77;;
6537;SDS011;3302;52.508;13.454;2022-10-16T09:07:13;1.93;;;1.60;;
6537;SDS011;3302;52.508;13.454;2022-10-16T09:09:52;1.80;;;1.57;;
6537;SDS011;3302;52.508;13.454;2022-10-16T09:18:27;3.10;;;1.50;;
6537;SDS011;3302;52.508;13.454;2022-10-16T09:21:05;1.73;;;1.37;;
6537;SDS011;3302;52.508;13.454;2022-10-16T09:23:45;1.23;;;1.13;;
6537;SDS011;3302;52.508;13.454;2022-10-16T09:26:13;2.77;;;1.40;;
6537;SDS011;3302;52.508;13.454;2022-10-16T09:28:41;1.50;;;1.40;;
6537;SDS011;3302;52.508;13.454;2022-10-16T09:31:15;2.43;;;1.30;;
6537;SDS011;3302;52.508;13.454;2022-10-16T09:33:43;4.40;;;1.80;;
6537;SDS011;3302;52.508;13.454;2022-10-16T09:36:12;3.60;;;1.80;;
6537;SDS011;3302;52.508;13.454;2022-10-16T09:38:39;2.03;;;1.70;;
6537;SDS011;3302;52.508;13.454;2022-10-16T09:41:23;2.30;;;1.90;;
6537;SDS011;3302;52.508;13.454;2022-10-16T09:43:59;2.97;;;1.60;;
6537;SDS011;3302;52.508;13.454;2022-10-16T09:49:00;2.50;;;1.33;;
6537;SDS011;3302;52.508;13.454;2022-10-16T09:53:59;1.40;;;1.30;;
6537;SDS011;3302;52.508;13.454;2022-10-16T09:56:27;1.90;;;1.20;;
6537;SDS011;3302;52.508;13.454;2022-10-16T09:58:56;1.90;;;1.30;;
6537;SDS011;3302;52.508;13.454;2022-10-16T10:01:26;1.53;;;1.20;;
6537;SDS011;3302;52.508;13.454;2022-10-16T10:04:05;3.80;;;1.60;;
6537;SDS011;3302;52.508;13.454;2022-10-16T10:06:43;1.90;;;1.30;;
6537;SDS011;3302;52.508;13.454;2022-10-16T10:09:23;2.13;;;1.63;;
6537;SDS011;3302;52.508;13.454;2022-10-16T10:11:52;2.40;;;1.70;;
6537;SDS011;3302;52.508;13.454;2022-10-16T10:14:23;4.90;;;1.30;;
6537;SDS011;3302;52.508;13.454;2022-10-16T10:19:52;2.00;;;1.63;;
6537;SDS011;3302;52.508;13.454;2022-10-16T10:22:25;2.00;;;1.30;;
6537;SDS011;3302;52.508;13.454;2022-10-16T10:25:01;3.73;;;1.40;;
6537;SDS011;3302;52.508;13.454;2022-10-16T10:42:00;1.90;;;1.50;;
6537;SDS011;3302;52.508;13.454;2022-10-16T10:50:05;1.53;;;1.33;;
6537;SDS011;3302;52.508;13.454;2022-10-16T11:00:57;1.77;;;1.60;;
6537;SDS011;3302;52.508;13.454;2022-10-16T11:03:55;2.33;;;1.20;;
6537;SDS011;3302;52.508;13.454;2022-10-16T11:06:48;4.87;;;1.40;;
6537;SDS011;3302;52.508;13.454;2022-10-16T11:09:25;2.40;;;1.57;;
6537;SDS011;3302;52.508;13.454;2022-10-16T11:12:00;2.80;;;1.50;;
6537;SDS011;3302;52.508;13.454;2022-10-16T11:14:40;1.40;;;1.20;;
6537;SDS011;3302;52.508;13.454;2022-10-16T11:22:47;1.80;;;1.30;;
6537;SDS011;3302;52.508;13.454;2022-10-16T11:25:23;1.90;;;1.40;;
6537;SDS011;3302;52.508;13.454;2022-10-16T11:28:02;1.53;;;1.33;;
6537;SDS011;3302;52.508;13.454;2022-10-16T11:30:29;2.47;;;1.10;;
6537;SDS011;3302;52.508;13.454;2022-10-16T11:35:41;1.60;;;1.20;;
6537;SDS011;3302;52.508;13.454;2022-10-16T11:38:15;1.67;;;1.20;;
6537;SDS011;3302;52.508;13.454;2022-10-16T11:40:57;2.13;;;1.30;;
6537;SDS011;3302;52.508;13.454;2022-10-16T11:43:32;3.57;;;1.90;;
6537;SDS011;3302;52.508;13.454;2022-10-16T11:46:05;3.83;;;1.90;;
6537;SDS011;3302;52.508;13.454;2022-10-16T11:48:40;1.73;;;1.20;;
6537;SDS011;3302;52.508;13.454;2022-10-16T11:51:35;1.80;;;1.37;;
6537;SDS011;3302;52.508;13.454;2022-10-16T11:54:21;2.17;;;1.40;;
6537;SDS011;3302;52.508;13.454;2022-10-16T11:56:59;1.90;;;1.50;;
6537;SDS011;3302;52.508;13.454;2022-10-16T11:59:45;2.03;;;1.40;;
6537;SDS011;3302;52.508;13.454;2022-10-16T12:02:36;3.23;;;1.80;;
6537;SDS011;3302;52.508;13.454;2022-10-16T12:05:22;2.23;;;1.90;;
6537;SDS011;3302;52.508;13.454;2022-10-16T12:08:06;1.60;;;1.30;;
6537;SDS011;3302;52.508;13.454;2022-10-16T12:10:36;1.67;;;1.40;;
6537;SDS011;3302;52.508;13.454;2022-10-16T12:13:04;1.93;;;1.60;;
6537;SDS011;3302;52.508;13.454;2022-10-16T12:15:50;2.37;;;1.30;;
6537;SDS011;3302;52.508;13.454;2022-10-16T12:18:22;2.80;;;1.20;;
6537;SDS011;3302;52.508;13.454;2022-10-16T12:20:56;1.60;;;1.40;;
6537;SDS011;3302;52.508;13.454;2022-10-16T12:23:30;3.63;;;1.67;;
6537;SDS011;3302;52.508;13.454;2022-10-16T12:25:57;3.53;;;1.80;;
6537;SDS011;3302;52.508;13.454;2022-10-16T12:28:31;2.57;;;1.50;;
6537;SDS011;3302;52.508;13.454;2022-10-16T12:30:59;3.00;;;0.97;;
6537;SDS011;3302;52.508;13.454;2022-10-16T12:33:31;1.17;;;0.97;;
6537;SDS011;3302;52.508;13.454;2022-10-16T12:35:59;2.20;;;1.10;;
6537;SDS011;3302;52.508;13.454;2022-10-16T12:38:30;4.17;;;1.40;;
6537;SDS011;3302;52.508;13.454;2022-10-16T12:41:07;1.97;;;1.50;;
6537;SDS011;3302;52.508;13.454;2022-10-16T12:43:40;1.80;;;1.30;;
6537;SDS011;3302;52.508;13.454;2022-10-16T12:48:33;2.37;;;1.43;;
6537;SDS011;3302;52.508;13.454;2022-10-16T12:51:09;1.30;;;1.00;;
6537;SDS011;3302;52.508;13.454;2022-10-16T12:53:35;4.93;;;1.47;;
6537;SDS011;3302;52.508;13.454;2022-10-16T12:56:45;1.67;;;1.10;;
6537;SDS011;3302;52.508;13.454;2022-10-16T13:02:13;2.00;;;1.60;;
6537;SDS011;3302;52.508;13.454;2022-10-16T13:21:25;1.60;;;1.40;;
6537;SDS011;3302;52.508;13.454;2022-10-16T13:27:20;4.87;;;1.90;;
6537;SDS011;3302;52.508;13.454;2022-10-16T13:29:40;2.23;;;1.10;;
6537;SDS011;3302;52.508;13.454;2022-10-16T13:32:08;1.80;;;1.17;;
6537;SDS011;3302;52.508;13.454;2022-10-16T13:34:45;1.10;;;1.00;;
6537;SDS011;3302;52.508;13.454;2022-10-16T13:37:19;2.00;;;1.20;;
6537;SDS011;3302;52.508;13.454;2022-10-16T13:39:48;1.70;;;1.10;;
6537;SDS011;3302;52.508;13.454;2022-10-16T13:42:28;1.33;;;1.10;;
6537;SDS011;3302;52.508;13.454;2022-10-16T13:44:55;2.80;;;1.00;;
6537;SDS011;3302;52.508;13.454;2022-10-16T13:47:23;1.30;;;1.10;;
6537;SDS011;3302;52.508;13.454;2022-10-16T13:50:03;3.13;;;1.23;;
6537;SDS011;3302;52.508;13.454;2022-10-16T13:52:31;1.90;;;1.10;;
6537;SDS011;3302;52.508;13.454;2022-10-16T13:54:57;2.03;;;1.23;;
6537;SDS011;3302;52.508;13.454;2022-10-16T13:57:24;2.20;;;1.57;;
6537;SDS011;3302;52.508;13.454;2022-10-16T13:59:50;2.27;;;1.20;;
6537;SDS011;3302;52.508;13.454;2022-10-16T14:04:51;3.70;;;1.10;;
6537;SDS011;3302;52.508;13.454;2022-10-16T14:07:24;2.17;;;1.27;;
6537;SDS011;3302;52.508;13.454;2022-10-16T14:09:57;1.83;;;1.30;;
6537;SDS011;3302;52.508;13.454;2022-10-16T14:12:30;1.70;;;1.20;;
6537;SDS011;3302;52.508;13.454;2022-10-16T14:14:57;2.43;;;1.10;;
6537;SDS011;3302;52.508;13.454;2022-10-16T14:17:26;3.83;;;1.53;;
6537;SDS011;3302;52.508;13.454;2022-10-16T14:19:55;3.30;;;1.27;;
6537;SDS011;3302;52.508;13.454;2022-10-16T14:24:55;6.27;;;1.87;;
6537;SDS011;3302;52.508;13.454;2022-10-16T14:27:35;2.43;;;2.00;;
6537;SDS011;3302;52.508;13.454;2022-10-16T14:32:52;2.33;;;1.80;;
6537;SDS011;3302;52.508;13.454;2022-10-16T14:35:24;1.97;;;1.60;;
6537;SDS011;3302;52.508;13.454;2022-10-16T14:37:55;1.40;;;1.20;;
6537;SDS011;3302;52.508;13.454;2022-10-16T14:40:26;3.43;;;1.57;;
6537;SDS011;3302;52.508;13.454;2022-10-16T14:42:54;5.13;;;1.70;;
6537;SDS011;3302;52.508;13.454;2022-10-16T14:45:22;5.10;;;2.00;;
6537;SDS011;3302;52.508;13.454;2022-10-16T14:47:52;3.63;;;2.40;;
6537;SDS011;3302;52.508;13.454;2022-10-16T14:50:20;2.10;;;1.60;;
6537;SDS011;3302;52.508;13.454;2022-10-16T14:52:47;1.63;;;1.43;;
6537;SDS011;3302;52.508;13.454;2022-10-16T14:55:13;2.77;;;1.50;;
6537;SDS011;3302;52.508;13.454;2022-10-16T14:57:39;1.77;;;1.20;;
6537;SDS011;3302;52.508;13.454;2022-10-16T15:00:18;4.63;;;1.60;;
6537;SDS011;3302;52.508;13.454;2022-10-16T15:02:48;1.93;;;1.50;;
6537;SDS011;3302;52.508;13.454;2022-10-16T15:05:19;3.43;;;1.50;;
6537;SDS011;3302;52.508;13.454;2022-10-16T15:07:50;1.60;;;1.50;;
6537;SDS011;3302;52.508;13.454;2022-10-16T15:10:17;3.37;;;2.40;;
6537;SDS011;3302;52.508;13.454;2022-10-16T15:12:43;1.70;;;1.60;;
6537;SDS011;3302;52.508;13.454;2022-10-16T15:15:23;2.43;;;1.50;;
6537;SDS011;3302;52.508;13.454;2022-10-16T15:17:54;2.17;;;1.40;;
6537;SDS011;3302;52.508;13.454;2022-10-16T15:20:22;1.70;;;1.57;;
6537;SDS011;3302;52.508;13.454;2022-10-16T15:22:49;2.57;;;2.03;;
6537;SDS011;3302;52.508;13.454;2022-10-16T15:25:29;3.20;;;1.63;;
6537;SDS011;3302;52.508;13.454;2022-10-16T15:28:08;2.40;;;1.40;;
6537;SDS011;3302;52.508;13.454;2022-10-16T15:30:34;3.40;;;2.00;;
6537;SDS011;3302;52.508;13.454;2022-10-16T15:33:01;4.87;;;2.00;;
6537;SDS011;3302;52.508;13.454;2022-10-16T15:35:27;1.83;;;1.50;;
6537;SDS011;3302;52.508;13.454;2022-10-16T15:37:53;2.37;;;1.50;;
6537;SDS011;3302;52.508;13.454;2022-10-16T15:40:20;2.23;;;1.43;;
6537;SDS011;3302;52.508;13.454;2022-10-16T15:42:46;3.07;;;1.60;;
6537;SDS011;3302;52.508;13.454;2022-10-16T15:45:12;1.80;;;1.40;;
6537;SDS011;3302;52.508;13.454;2022-10-16T15:47:38;3.07;;;1.73;;
6537;SDS011;3302;52.508;13.454;2022-10-16T15:50:05;3.30;;;2.00;;
6537;SDS011;3302;52.508;13.454;2022-10-16T15:52:31;2.40;;;1.70;;
6537;SDS011;3302;52.508;13.454;2022-10-16T15:54:58;5.03;;;1.97;;
6537;SDS011;3302;52.508;13.454;2022-10-16T15:57:23;3.93;;;2.40;;
6537;SDS011;3302;52.508;13.454;2022-10-16T15:59:49;3.37;;;2.23;;
6537;SDS011;3302;52.508;13.454;2022-10-16T16:02:15;4.47;;;2.37;;
6537;SDS011;3302;52.508;13.454;2022-10-16T16:04:41;2.70;;;2.33;;
6537;SDS011;3302;52.508;13.454;2022-10-16T16:07:07;2.80;;;2.23;;
6537;SDS011;3302;52.508;13.454;2022-10-16T16:09:33;2.67;;;2.17;;
6537;SDS011;3302;52.508;13.454;2022-10-16T16:11:59;6.30;;;3.90;;
6537;SDS011;3302;52.508;13.454;2022-10-16T16:14:26;4.90;;;3.23;;
6537;SDS011;3302;52.508;13.454;2022-10-16T16:16:56;5.57;;;3.10;;
6537;SDS011;3302;52.508;13.454;2022-10-16T16:19:22;5.63;;;4.47;;
6537;SDS011;3302;52.508;13.454;2022-10-16T16:21:48;8.17;;;4.27;;
6537;SDS011;3302;52.508;13.454;2022-10-16T16:24:15;8.23;;;5.77;;
6537;SDS011;3302;52.508;13.454;2022-10-16T16:26:41;5.33;;;3.20;;
6537;SDS011;3302;52.508;13.454;2022-10-16T16:29:12;5.40;;;3.40;;
6537;SDS011;3302;52.508;13.454;2022-10-16T16:31:39;3.63;;;3.13;;
6537;SDS011;3302;52.508;13.454;2022-10-16T16:34:06;4.23;;;3.07;;
6537;SDS011;3302;52.508;13.454;2022-10-16T16:36:32;4.57;;;4.00;;
6537;SDS011;3302;52.508;13.454;2022-10-16T16:38:58;4.27;;;3.50;;
6537;SDS011;3302;52.508;13.454;2022-10-16T16:41:25;5.10;;;3.73;;
6537;SDS011;3302;52.508;13.454;2022-10-16T16:43:53;4.57;;;3.57;;